Latest Weather Observations for Browse Island

IDW60801

Issued at 7:33 am WST Monday 20 November 2017 (issued every 30 minutes, with the page automatically refreshed every 10 minutes)

About weather observations | Map of weather stations | Latest weather observations for WA | Other Formats
Station Details ID: 200784 Name: BROWSE ISLAND Lat: -14.11 Lon: 123.55 Height: 3.7 m
Data from the previous 72 hours. | See also: Recent months at Browse Island
Date/Time
WST
Temp
°C
App
Temp
°C
Dew
Point
°C
Rel
Hum
%
Delta-T
°C
Wind Press
QNH
hPa
Press
MSL
hPa
Rain since
9am
mm
Dir  Spd
km/h
Gust
km/h
Spd
kts
Gust
kts
20/07:30am 30.0 - - - - ENE 13 15 7 8 1009.0 - -
20/07:00am 29.9 - - - - ENE 15 13 8 7 1009.0 1009.0 -
20/06:30am 30.0 - - - - E 15 - 8 - 1008.0 - -
20/06:00am 29.0 - - - - E 15 - 8 - 1008.0 1008.2 -
20/05:30am 29.0 - - - - E 15 - 8 - 1008.0 - -
20/05:00am 28.7 - - - - E 15 - 8 - 1007.0 1007.6 -
20/04:30am 29.0 - - - - E 17 - 9 - 1007.0 - -
20/04:00am 28.8 - - - - E 17 - 9 - 1007.0 1007.2 -
20/03:30am 29.0 - - - - E 17 - 9 - 1007.0 - -
20/03:00am 28.8 - - - - E 19 - 10 - 1007.0 1006.9 -
20/02:30am 29.0 - - - - E 19 - 10 - 1007.0 - -
20/02:00am 28.7 - - - - E 17 - 9 - 1007.0 1007.1 -
20/01:30am 29.0 - - - - E 17 - 9 - 1007.0 - -
20/01:00am 29.0 - - - - ENE 15 - 8 - 1007.0 1007.7 -
20/12:30am 29.0 - - - - ENE 17 - 9 - 1008.0 - -
20/12:00am 28.9 - - - - E 20 24 11 13 1008.8 1008.7 -
 
Date/Time
WST
Temp
°C
App
Temp
°C
Dew
Point
°C
Rel
Hum
%
Delta-T
°C
Wind Press
QNH
hPa
Press
MSL
hPa
Rain since
9am
mm
Dir  Spd
km/h
Gust
km/h
Spd
kts
Gust
kts
19/11:30pm 29.0 - - - - E 20 - 11 - 1009.0 - -
19/11:00pm 28.9 - - - - E 22 - 12 - 1009.0 1009.7 -
19/10:30pm 29.0 - - - - E 20 - 11 - 1010.0 - -
19/10:00pm 28.9 - - - - E 22 - 12 - 1009.0 1009.8 -
19/09:30pm 29.0 - - - - E 20 - 11 - 1009.0 - -
19/09:00pm 28.9 - - - - ENE 20 - 11 - 1009.0 1009.6 -
19/08:30pm 29.0 - - - - E 17 - 9 - 1009.0 - -
19/08:00pm 28.7 - - - - ENE 15 - 8 - 1009.0 1009.1 -
19/07:30pm 29.0 - - - - NE 13 - 7 - 1008.0 - -
19/07:00pm 28.7 - - - - NNE 15 - 8 - 1008.0 1008.4 -
19/06:30pm 29.0 - - - - N 11 - 6 - 1008.0 - -
19/06:00pm 28.0 - - - - S 7 - 4 - 1007.0 1007.8 -
19/05:30pm 28.0 - - - - CALM 0 - 0 - 1007.0 - -
19/05:00pm 28.0 - - - - SSW 9 - 5 - 1007.0 1007.4 -
19/04:30pm 29.0 - - - - NE 13 - 7 - 1007.0 - -
19/04:00pm 27.3 - - - - NE 24 - 13 - 1007.0 1007.4 -
19/03:30pm 31.0 - - - - E 15 - 8 - 1007.0 - -
19/03:00pm 30.4 - - - - ESE 15 - 8 - 1006.0 1006.8 -
19/02:30pm 31.0 - - - - ESE 17 - 9 - 1007.0 - -
19/02:00pm 30.8 - - - - ESE 17 - 9 - 1007.0 1007.3 -
19/01:30pm 32.0 - - - - ESE 19 - 10 - 1007.0 - -
19/01:00pm 30.9 - - - - SE 15 - 8 - 1008.0 1007.9 -
19/12:30pm 30.0 - - - - S 13 - 7 - 1008.0 - -
19/12:00pm 29.7 - - - - SSW 9 - 5 - 1008.0 1008.5 -
19/11:30am 29.0 - - - - SSW 9 - 5 - 1009.0 - -
19/11:00am 28.9 - - - - S 11 - 6 - 1009.0 1009.2 -
19/10:30am 29.0 - - - - S 11 - 6 - 1009.0 - -
19/10:00am 27.6 - - - - WSW 13 - 7 - 1009.0 1009.6 -
19/09:30am 27.0 - - - - W 13 - 7 - 1009.0 - -
19/09:00am 25.6 - - - - NW 19 - 10 - 1010.0 1009.9 -
19/08:45am 25.0 - - - - NNW 28 - 15 - 1010.0 - -
19/08:30am 29.0 - - - - SSE 17 - 9 - 1010.0 - -
19/08:00am 29.0 - - - - SSE 22 - 12 - 1009.0 1009.5 -
19/07:30am 29.0 - - - - S 22 - 12 - 1009.0 - -
19/07:00am 29.0 - - - - SSE 22 - 12 - 1009.0 1009.2 -
19/06:30am 29.0 - - - - S 24 - 13 - 1008.0 - -
19/06:00am 28.8 - - - - S 20 - 11 - 1008.0 1008.6 -
19/05:30am 29.0 - - - - S 20 - 11 - 1008.0 - -
19/05:00am 28.8 - - - - S 20 - 11 - 1008.0 1008.0 -
19/04:30am 29.0 - - - - S 22 - 12 - 1007.0 - -
19/04:00am 28.6 - - - - S 20 - 11 - 1007.0 1007.6 -
19/03:30am 29.0 - - - - S 17 - 9 - 1007.0 - -
19/03:00am 28.5 - - - - S 19 - 10 - 1007.0 1007.5 -
19/02:30am 29.0 - - - - S 19 - 10 - 1007.0 - -
19/02:00am 28.8 - - - - SSW 17 - 9 - 1007.0 1007.7 -
19/01:30am 29.0 - - - - SSW 9 - 5 - 1007.0 - -
19/01:00am 28.8 - - - - SSW 7 - 4 - 1007.0 1007.8 -
19/12:30am 29.0 - - - - SW 11 - 6 - 1008.0 - -
19/12:00am 29.0 - - - - SW 7 - 4 - 1008.0 1008.6 -
 
Date/Time
WST
Temp
°C
App
Temp
°C
Dew
Point
°C
Rel
Hum
%
Delta-T
°C
Wind Press
QNH
hPa
Press
MSL
hPa
Rain since
9am
mm
Dir  Spd
km/h
Gust
km/h
Spd
kts
Gust
kts
18/11:30pm 29.0 - - - - S 7 - 4 - 1009.0 - -
18/11:00pm 29.2 - - - - SSE 11 - 6 - 1009.0 1009.6 -
18/10:30pm 29.0 - - - - S 9 - 5 - 1009.0 - -
18/10:00pm 29.2 - - - - S 7 - 4 - 1009.0 1009.7 -
18/09:30pm 29.0 - - - - S 7 - 4 - 1009.0 - -
18/09:00pm 29.3 - - - - SSW 7 - 4 - 1009.0 1009.5 -
18/08:30pm 29.0 - - - - SW 13 - 7 - 1009.0 - -
18/08:00pm 29.2 - - - - SW 13 - 7 - 1008.0 1008.3 -
18/07:30pm 29.0 - - - - SW 9 - 5 - 1007.0 - -
18/07:00pm 29.3 - - - - SW 9 - 5 - 1007.0 1007.6 -
18/06:30pm 29.0 - - - - SW 9 - 5 - 1007.0 - -
18/06:00pm 29.5 - - - - SW 11 - 6 - 1006.0 1006.8 -
18/05:30pm 29.0 - - - - SSW 11 - 6 - 1006.0 - -
18/05:00pm 29.4 - - - - S 13 - 7 - 1006.0 1006.4 -
18/04:30pm 29.0 - - - - S 17 - 9 - 1006.0 - -
18/04:00pm 29.2 - - - - S 15 - 8 - 1006.0 1006.2 -
18/03:30pm 29.0 - - - - S 15 - 8 - 1006.0 - -
18/03:00pm 29.8 - - - - S 17 - 9 - 1006.0 1006.2 -
18/02:30pm 29.0 - - - - S 20 - 11 - 1006.0 - -
18/02:00pm 29.1 - - - - S 22 - 12 - 1006.0 1006.3 -
18/01:30pm 29.0 - - - - S 20 - 11 - 1006.0 - -
18/01:00pm 29.0 - - - - S 20 - 11 - 1007.0 1007.0 -
18/12:30pm 29.0 - - - - S 22 - 12 - 1007.0 - -
18/12:00pm 29.3 - - - - S 20 - 11 - 1008.0 1007.9 -
18/11:30am 29.0 - - - - S 19 - 10 - 1008.0 - -
18/11:00am 29.4 - - - - SSE 19 - 10 - 1009.0 1008.9 -
18/10:30am 30.0 - - - - SSE 20 - 11 - 1009.0 - -
18/10:00am 29.0 - - - - SSE 22 - 12 - 1009.0 1009.2 -
18/09:30am 29.0 - - - - S 20 - 11 - 1009.0 - -
18/09:00am 29.1 - - - - S 22 - 12 - 1009.0 1009.3 -
18/08:30am 29.0 - - - - S 24 - 13 - 1009.0 - -
18/08:00am 29.0 - - - - SSE 24 - 13 - 1009.0 1009.2 -
18/07:30am 29.0 - - - - S 22 - 12 - 1009.0 - -
18/07:00am 28.7 - - - - SSE 20 - 11 - 1008.0 1008.7 -
18/06:30am 29.0 - - - - S 20 - 11 - 1008.0 - -
18/06:00am 28.5 - - - - S 19 - 10 - 1008.0 1008.3 -
18/05:30am 29.0 - - - - S 17 - 9 - 1008.0 - -
18/05:00am 28.4 - - - - S 19 - 10 - 1007.0 1007.7 -
18/04:30am 28.0 - - - - S 19 - 10 - 1007.0 - -
18/04:00am 28.3 - - - - S 20 - 11 - 1007.0 1007.2 -
18/03:30am 28.0 - - - - S 19 - 10 - 1007.0 - -
18/03:00am 28.5 - - - - S 17 - 9 - 1007.0 1007.2 -
18/02:30am 29.0 - - - - SSW 15 - 8 - 1007.0 - -
18/02:00am 28.8 - - - - SW 15 - 8 - 1007.0 1007.1 -
18/01:30am 29.0 - - - - S 15 - 8 - 1007.0 - -
18/01:00am 28.9 - - - - S 13 - 7 - 1007.0 1007.7 -
18/12:30am 29.0 - - - - SSE 15 - 8 - 1008.0 - -
18/12:00am 28.8 - - - - S 13 - 7 - 1008.0 1008.8 -
 
Date/Time
WST
Temp
°C
App
Temp
°C
Dew
Point
°C
Rel
Hum
%
Delta-T
°C
Wind Press
QNH
hPa
Press
MSL
hPa
Rain since
9am
mm
Dir  Spd
km/h
Gust
km/h
Spd
kts
Gust
kts
17/11:30pm 29.0 - - - - S 17 - 9 - 1009.0 - -
17/11:00pm 29.1 - - - - S 17 - 9 - 1009.0 1009.8 -
17/10:30pm 29.0 - - - - S 13 - 7 - 1010.0 - -
17/10:00pm 29.3 - - - - SSW 11 - 6 - 1009.0 1009.8 -
17/09:30pm 29.0 - - - - SSW 13 - 7 - 1009.0 - -
17/09:00pm 29.4 - - - - SSW 13 - 7 - 1009.0 1009.3 -
17/08:30pm 29.0 - - - - SW 11 - 6 - 1009.0 - -
17/08:00pm 29.4 - - - - SW 11 - 6 - 1008.0 1008.7 -
17/07:30pm 29.0 - - - - SSW 11 - 6 - 1008.0 - -
17/07:00pm 29.3 - - - - WSW 9 - 5 - 1008.0 1008.1 -
17/06:30pm 29.0 - - - - WSW 9 - 5 - 1007.0 - -
17/06:00pm 29.1 - - - - WSW 11 - 6 - 1007.0 1007.0 -
17/05:30pm 29.0 - - - - WSW 11 - 6 - 1006.0 - -
17/05:00pm 29.4 - - - - WSW 11 - 6 - 1006.0 1006.3 -
17/04:30pm 30.0 - - - - SW 6 - 3 - 1006.0 - -
17/04:00pm 30.2 - - - - SSW 7 - 4 - 1006.0 1006.2 -
17/03:30pm 30.0 - - - - S 9 - 5 - 1006.0 - -
17/03:00pm 30.2 - - - - S 11 - 6 - 1006.0 1006.4 -
17/02:30pm 30.0 - - - - S 11 - 6 - 1006.0 - -
17/02:00pm 29.3 - - - - S 13 - 7 - 1006.0 1006.7 -
17/01:30pm 29.0 - - - - S 15 - 8 - 1007.0 - -
17/01:00pm 29.1 - - - - S 17 - 9 - 1007.0 1007.5 -
17/12:30pm 30.0 - - - - S 17 - 9 - 1008.0 - -
17/12:00pm 29.3 - - - - S 19 - 10 - 1008.0 1008.4 -
17/11:30am 29.0 - - - - S 19 - 10 - 1008.0 - -
17/11:00am 29.2 - - - - S 19 - 10 - 1009.0 1009.1 -
17/10:30am 29.0 - - - - S 20 - 11 - 1009.0 - -
17/10:00am 29.0 - - - - S 19 - 10 - 1009.0 1009.7 -
17/09:30am 29.0 - - - - S 20 - 11 - 1009.0 - -
17/09:00am 29.1 - - - - S 22 - 12 - 1010.0 1010.0 -
17/08:30am 29.0 - - - - S 20 - 11 - 1010.0 - -
17/08:00am 29.0 - - - - S 19 - 10 - 1010.0 1010.2 -

Other Formats:

Comma delimited format used in spreadsheet applications
http://www.bom.gov.au/fwo/IDW60801/IDW60801.94103.axf

JavaScript Object Notation format (JSON) in row-major order
http://www.bom.gov.au/fwo/IDW60801/IDW60801.94103.json